Reserve, Indiana
Current Conditions -  °F | °C
As of 12:35 PM on Friday 26 Dec 2014 (Local Time) from KPRG Reporting Station
Clear Clear  
Wind Chill: 42°   Ceiling: Unl
Heat Index: 48°   Visibility: 7mi
Dew Point: 43°   Wind: 17mph
Humidity: 81%   Direction: 210°SSW
Pressure: 30.12"   Gusts: NA
Location:  39.8207°N, 87.3335°W
Report Text: KPRG 261735Z AUTO 21015KT 7SM CLR 09/06 A3012 RMK AO2 T00900059
Loading
Personal Weather Stations






























Interactive Weather Map New forecast layout! Learn more

10-Day Weather Forecast

Advertisements
Track Severe Weather on mobile